Time;durP1;ratioP1;P1;durP2;ratioP2;P2;SDS_P1;SDS_P2;PMS_P1;PMS_P2;Temp;Humidity;BMP_temperature;BMP_pressure;BME280_temperature;BME280_humidity;BME280_pressure;Samples;Min_cycle;Max_cycle;Signal;HPM_P1;HPM_P2
2022/10/17 00:00:43;;;;;;;10.20;4.35;;;12.30;99.90;;;;;;5112781;28;20056;-63
2022/10/17 00:03:11;;;;;;;10.70;4.03;;;12.20;99.90;;;;;;5112078;28;20097;-63
2022/10/17 00:05:41;;;;;;;10.18;4.82;;;12.30;99.90;;;;;;5115554;27;20051;-63
2022/10/17 00:08:08;;;;;;;10.57;3.95;;;12.20;99.90;;;;;;5133883;27;20494;-63
2022/10/17 00:10:35;;;;;;;10.90;3.60;;;12.20;99.90;;;;;;5111183;28;20047;-62
2022/10/17 00:13:04;;;;;;;8.20;4.00;;;12.20;99.90;;;;;;5112949;28;20043;-62
2022/10/17 00:15:31;;;;;;;5.60;3.42;;;12.10;99.90;;;;;;5112699;28;20052;-62
2022/10/17 00:17:58;;;;;;;14.73;4.03;;;12.20;99.90;;;;;;5113332;28;20047;-62
2022/10/17 00:20:25;;;;;;;8.73;3.35;;;12.20;99.90;;;;;;5113498;28;20120;-62
2022/10/17 00:22:52;;;;;;;6.70;2.85;;;12.20;99.90;;;;;;5094771;28;20043;-62
2022/10/17 00:25:19;;;;;;;14.07;3.30;;;12.20;99.90;;;;;;5112721;28;20112;-62
2022/10/17 00:27:46;;;;;;;9.95;3.58;;;12.20;99.90;;;;;;5133650;28;20505;-62
2022/10/17 00:30:16;;;;;;;10.63;3.55;;;12.20;99.90;;;;;;5133408;28;20050;-62
2022/10/17 00:32:43;;;;;;;10.45;3.92;;;12.30;99.90;;;;;;5115003;28;20082;-63
2022/10/17 00:35:10;;;;;;;12.88;4.50;;;12.30;99.90;;;;;;5115567;28;20055;-62
2022/10/17 00:37:37;;;;;;;10.05;4.28;;;12.30;99.90;;;;;;5106062;28;20047;-62
2022/10/17 00:40:05;;;;;;;10.52;5.13;;;12.40;99.90;;;;;;5097493;28;20135;-62
2022/10/17 00:42:32;;;;;;;8.65;4.63;;;12.30;99.90;;;;;;5098772;28;20145;-62
2022/10/17 00:45:13;;;;;;;11.93;4.90;;;12.40;99.90;;;;;;5098606;28;20059;-62
2022/10/17 00:47:42;;;;;;;;;;;12.40;99.90;;;;;;5117604;28;20131;-62
2022/10/17 00:50:10;;;;;;;7.97;4.50;;;12.40;99.90;;;;;;5117547;28;20271;-63
2022/10/17 00:52:37;;;;;;;11.63;4.25;;;12.40;99.90;;;;;;5098135;28;20059;-63
2022/10/17 00:55:10;;;;;;;7.82;4.30;;;12.40;99.90;;;;;;5116999;28;20044;-63
2022/10/17 00:57:38;;;;;;;11.13;5.00;;;12.50;99.90;;;;;;5116777;28;20056;-62
2022/10/17 01:00:09;;;;;;;11.20;4.25;;;12.50;99.90;;;;;;5116954;28;20047;-62
2022/10/17 01:02:36;;;;;;;11.57;5.03;;;12.60;99.90;;;;;;5117036;28;20441;-62
2022/10/17 01:05:05;;;;;;;11.13;3.90;;;12.60;99.90;;;;;;5098414;28;20051;-62
2022/10/17 01:07:32;;;;;;;10.68;4.43;;;12.60;99.90;;;;;;5106616;28;20056;-62
2022/10/17 01:09:59;;;;;;;8.15;3.92;;;12.70;99.90;;;;;;5115949;28;20058;-62
2022/10/17 01:12:30;;;;;;;11.70;4.63;;;12.70;99.90;;;;;;5115895;28;20051;-62
2022/10/17 01:15:09;;;;;;;10.90;4.57;;;12.70;99.90;;;;;;5116799;28;20043;-62
2022/10/17 01:17:46;;;;;;;9.55;3.90;;;12.70;99.90;;;;;;5116538;28;20495;-61
2022/10/17 01:20:46;;;;;;;14.30;5.55;;;12.80;99.90;;;;;;5122462;27;20059;-63
2022/10/17 01:23:38;;;;;;;9.65;4.68;;;12.80;99.90;;;;;;5135403;27;20063;-61
2022/10/17 01:26:19;;;;;;;8.55;3.90;;;12.80;99.90;;;;;;5135916;27;20051;-62
2022/10/17 01:29:16;;;;;;;11.25;4.65;;;12.80;99.90;;;;;;5118851;27;20411;-61
2022/10/17 01:31:47;;;;;;;8.48;3.75;;;12.70;99.90;;;;;;5133541;27;20084;-62
2022/10/17 01:34:18;;;;;;;6.72;3.63;;;12.90;99.90;;;;;;5117681;27;20043;-63
2022/10/17 01:36:50;;;;;;;11.60;3.63;;;13.00;99.90;;;;;;5118192;27;20051;-63
2022/10/17 01:39:25;;;;;;;11.38;4.53;;;13.00;99.90;;;;;;5137388;27;20103;-62
2022/10/17 01:41:58;;;;;;;6.60;4.18;;;13.00;99.90;;;;;;5117618;27;20550;-62
2022/10/17 01:44:33;;;;;;;9.85;4.22;;;13.10;99.90;;;;;;5137236;27;20080;-62
2022/10/17 01:47:05;;;;;;;10.93;3.90;;;13.20;99.90;;;;;;5113107;28;20060;-62
2022/10/17 01:49:34;;;;;;;8.57;3.88;;;13.20;99.90;;;;;;5113375;27;20371;-62
2022/10/17 01:52:04;;;;;;;12.95;4.75;;;13.20;99.90;;;;;;5118259;27;20047;-61
2022/10/17 01:54:37;;;;;;;7.70;3.70;;;13.20;99.90;;;;;;5136281;27;20047;-62
2022/10/17 01:57:07;;;;;;;8.52;4.07;;;13.20;99.90;;;;;;5136267;27;20483;-62
2022/10/17 01:59:39;;;;;;;8.50;4.10;;;13.20;99.90;;;;;;5118972;27;20115;-62
2022/10/17 02:02:09;;;;;;;8.10;3.60;;;13.30;99.90;;;;;;5117350;27;20047;-63
2022/10/17 02:04:37;;;;;;;9.00;3.78;;;13.30;99.90;;;;;;5117809;27;20052;-63
2022/10/17 02:07:07;;;;;;;10.68;4.18;;;13.20;99.90;;;;;;5116092;28;20047;-63
2022/10/17 02:09:34;;;;;;;6.03;3.80;;;13.20;99.90;;;;;;5114072;28;20054;-63
2022/10/17 02:12:15;;;;;;;8.50;4.03;;;13.20;99.90;;;;;;5115307;28;20100;-64
2022/10/17 02:14:54;;;;;;;8.07;4.10;;;13.10;99.90;;;;;;5115995;28;20047;-63
2022/10/17 02:17:35;;;;;;;10.98;4.32;;;13.10;99.90;;;;;;5115311;28;20479;-62
2022/10/17 02:20:13;;;;;;;6.85;3.88;;;13.10;99.90;;;;;;5115488;28;20059;-62
2022/10/17 02:22:45;;;;;;;8.15;4.15;;;13.00;99.90;;;;;;5114678;28;20093;-62
2022/10/17 02:25:18;;;;;;;12.25;4.88;;;13.00;99.90;;;;;;5115588;28;20047;-62
2022/10/17 02:27:52;;;;;;;10.43;4.20;;;12.90;99.90;;;;;;5115328;28;20511;-63
2022/10/17 02:30:26;;;;;;;15.00;5.68;;;12.90;99.90;;;;;;5114766;28;20051;-60
2022/10/17 02:32:58;;;;;;;11.15;4.78;;;12.90;99.90;;;;;;5096698;28;20047;-62
2022/10/17 02:35:30;;;;;;;7.55;4.43;;;12.90;99.90;;;;;;5115222;28;20491;-63
2022/10/17 02:37:59;;;;;;;12.45;4.80;;;12.90;99.90;;;;;;5114583;28;20483;-61
2022/10/17 02:40:29;;;;;;;13.20;5.20;;;12.90;99.90;;;;;;5096780;28;20055;-62
2022/10/17 02:42:58;;;;;;;9.60;5.27;;;12.80;99.90;;;;;;5096474;28;20402;-62
2022/10/17 02:45:27;;;;;;;8.32;4.65;;;12.80;99.90;;;;;;5097151;27;20066;-62
2022/10/17 02:48:00;;;;;;;14.13;4.90;;;12.80;99.90;;;;;;5117348;27;20507;-62
2022/10/17 02:50:38;;;;;;;11.35;5.13;;;12.80;99.90;;;;;;5135005;27;20556;-62
2022/10/17 02:53:09;;;;;;;9.05;5.15;;;12.80;99.90;;;;;;5134999;27;20043;-62
2022/10/17 02:55:43;;;;;;;9.18;4.88;;;12.80;99.90;;;;;;5135666;27;20047;-62
2022/10/17 02:58:16;;;;;;;11.70;5.55;;;12.80;99.90;;;;;;5135068;27;20043;-61
2022/10/17 03:00:44;;;;;;;8.57;4.68;;;12.80;99.90;;;;;;5113092;28;20055;-62
2022/10/17 03:03:24;;;;;;;8.48;5.72;;;12.80;99.90;;;;;;5113931;28;20520;-62
2022/10/17 03:05:52;;;;;;;9.77;5.27;;;12.80;99.90;;;;;;5113207;28;20100;-61
2022/10/17 03:08:19;;;;;;;10.70;5.05;;;12.90;99.90;;;;;;5119760;27;20563;-63
2022/10/17 03:10:45;;;;;;;7.60;5.35;;;12.90;99.90;;;;;;5114913;28;20055;-63
2022/10/17 03:13:13;;;;;;;9.27;5.15;;;12.90;99.90;;;;;;5095142;28;20059;-63
2022/10/17 03:15:40;;;;;;;8.80;5.47;;;12.90;99.90;;;;;;5114361;28;20100;-62
2022/10/17 03:18:07;;;;;;;10.95;5.88;;;12.90;99.90;;;;;;5096223;28;20097;-62
2022/10/17 03:20:36;;;;;;;8.38;5.43;;;12.90;99.90;;;;;;5095198;28;20104;-62
2022/10/17 03:23:03;;;;;;;10.23;6.07;;;12.80;99.90;;;;;;5124011;27;20043;-63
2022/10/17 03:25:30;;;;;;;8.32;5.85;;;12.80;99.90;;;;;;5115904;27;20084;-62
2022/10/17 03:27:59;;;;;;;10.05;5.85;;;12.80;99.90;;;;;;5116231;27;20051;-62
2022/10/17 03:30:26;;;;;;;10.65;6.90;;;12.80;99.90;;;;;;5116449;27;20057;-62
2022/10/17 03:32:52;;;;;;;11.27;6.38;;;12.80;99.90;;;;;;5133181;27;20047;-63
2022/10/17 03:35:20;;;;;;;9.18;6.20;;;12.80;99.90;;;;;;5134711;27;20050;-62
2022/10/17 03:37:48;;;;;;;16.38;7.25;;;12.80;99.90;;;;;;5135011;27;20444;-62
2022/10/17 03:40:15;;;;;;;10.65;6.53;;;12.80;99.90;;;;;;5097783;28;20051;-62
2022/10/17 03:42:42;;;;;;;10.65;6.30;;;12.80;99.90;;;;;;5094632;28;20080;-62
2022/10/17 03:45:09;;;;;;;8.57;6.18;;;12.80;99.90;;;;;;5096008;28;20452;-63
2022/10/17 03:47:36;;;;;;;9.88;7.05;;;12.80;99.90;;;;;;5095544;28;20068;-63
2022/10/17 03:50:03;;;;;;;9.50;7.05;;;12.70;99.90;;;;;;5095617;28;20051;-62
2022/10/17 03:52:30;;;;;;;10.40;6.57;;;12.70;99.90;;;;;;5095740;28;20055;-62
2022/10/17 03:54:58;;;;;;;14.93;6.78;;;12.70;99.90;;;;;;5113315;28;20040;-63
2022/10/17 03:57:25;;;;;;;14.55;6.95;;;12.30;99.90;;;;;;5112568;28;20446;-63
2022/10/17 03:59:52;;;;;;;11.18;6.63;;;12.70;99.90;;;;;;5111737;28;20047;-63
2022/10/17 04:02:19;;;;;;;12.90;6.90;;;12.70;99.90;;;;;;5094683;28;20047;-63
2022/10/17 04:04:45;;;;;;;11.93;6.97;;;12.70;99.90;;;;;;5113800;28;20104;-62
2022/10/17 04:07:13;;;;;;;9.73;6.65;;;12.70;99.90;;;;;;5113670;28;20051;-63
2022/10/17 04:09:40;;;;;;;10.23;8.00;;;12.70;99.90;;;;;;5094461;28;20092;-63
2022/10/17 04:12:08;;;;;;;13.60;7.47;;;12.70;99.90;;;;;;5113556;28;20052;-62
2022/10/17 04:14:37;;;;;;;12.88;7.53;;;12.70;99.90;;;;;;5104966;28;20055;-62
2022/10/17 04:17:04;;;;;;;10.10;7.30;;;12.70;99.90;;;;;;5113409;28;20051;-63
2022/10/17 04:19:31;;;;;;;14.80;8.32;;;12.70;99.90;;;;;;5095517;28;20123;-63
2022/10/17 04:21:57;;;;;;;10.40;7.28;;;12.70;99.90;;;;;;5112830;28;20051;-63
2022/10/17 04:24:25;;;;;;;10.73;7.78;;;12.70;99.90;;;;;;5113211;28;20044;-63
2022/10/17 04:26:53;;;;;;;10.35;7.45;;;12.80;99.90;;;;;;5095409;28;20067;-63
2022/10/17 04:29:21;;;;;;;13.65;7.90;;;12.80;99.90;;;;;;5127202;28;20048;-62
2022/10/17 04:31:48;;;;;;;9.20;7.90;;;12.80;99.90;;;;;;5111477;28;20551;-62
2022/10/17 04:34:15;;;;;;;14.95;8.68;;;12.80;99.90;;;;;;5113037;28;20040;-63
2022/10/17 04:36:42;;;;;;;11.30;8.10;;;12.80;99.90;;;;;;5094851;28;20487;-63
2022/10/17 04:39:09;;;;;;;13.23;8.55;;;12.80;99.90;;;;;;5113173;28;20059;-64
2022/10/17 04:41:36;;;;;;;13.77;8.45;;;12.90;99.90;;;;;;5094739;28;20051;-63
2022/10/17 04:44:03;;;;;;;10.15;7.85;;;13.00;99.90;;;;;;5124321;28;20039;-63
2022/10/17 04:46:34;;;;;;;13.52;8.85;;;13.00;99.90;;;;;;5133559;28;20054;-63
2022/10/17 04:49:01;;;;;;;12.88;9.13;;;13.10;99.90;;;;;;5133731;28;20138;-62
2022/10/17 04:51:28;;;;;;;16.58;8.77;;;13.20;99.90;;;;;;5114553;28;20051;-63
2022/10/17 04:53:55;;;;;;;12.18;8.70;;;13.20;99.90;;;;;;5133611;28;20100;-62
2022/10/17 04:56:24;;;;;;;14.48;9.48;;;13.20;99.90;;;;;;5131188;28;20555;-62
2022/10/17 04:58:51;;;;;;;10.38;8.27;;;13.30;99.90;;;;;;5109136;28;20051;-63
2022/10/17 05:01:21;;;;;;;12.50;9.40;;;13.40;99.90;;;;;;5113682;28;20040;-63
2022/10/17 05:03:50;;;;;;;12.38;8.82;;;13.40;99.90;;;;;;5094532;28;20048;-63
2022/10/17 05:06:21;;;;;;;12.05;8.48;;;13.50;99.90;;;;;;5094083;28;20548;-63
2022/10/17 05:08:48;;;;;;;13.80;8.73;;;13.50;99.90;;;;;;5092636;28;20510;-62
2022/10/17 05:11:20;;;;;;;14.38;9.65;;;13.50;99.90;;;;;;5093465;28;20047;-62
2022/10/17 05:13:51;;;;;;;13.10;9.88;;;13.50;99.90;;;;;;5110623;28;20040;-62
2022/10/17 05:16:18;;;;;;;;;;;13.50;99.90;;;;;;5094049;28;20126;-63
2022/10/17 05:18:44;;;;;;;14.48;10.02;;;13.60;99.90;;;;;;5111609;28;19923;-61
2022/10/17 05:21:13;;;;;;;11.75;9.60;;;13.60;99.90;;;;;;5101355;28;20132;-62
2022/10/17 05:23:39;;;;;;;12.30;9.23;;;13.60;99.90;;;;;;5092575;28;20058;-62
2022/10/17 05:26:06;;;;;;;13.30;8.88;;;13.60;99.90;;;;;;5099895;27;20052;-63
2022/10/17 05:28:34;;;;;;;13.65;9.35;;;13.60;99.90;;;;;;5119688;27;20047;-62
2022/10/17 05:31:03;;;;;;;11.55;9.30;;;13.70;99.90;;;;;;5114421;28;20052;-62
2022/10/17 05:33:30;;;;;;;12.70;9.40;;;13.70;99.90;;;;;;5115918;27;20070;-62
2022/10/17 05:35:57;;;;;;;18.17;10.32;;;13.60;99.90;;;;;;5114547;27;20100;-62
2022/10/17 05:38:26;;;;;;;17.15;10.55;;;13.70;99.90;;;;;;5115152;27;20048;-62
2022/10/17 05:40:57;;;;;;;14.15;9.75;;;13.70;99.90;;;;;;5114355;27;20060;-62
2022/10/17 05:43:23;;;;;;;14.68;8.98;;;13.70;99.90;;;;;;5116644;27;20051;-62
2022/10/17 05:45:51;;;;;;;14.30;9.25;;;13.70;99.90;;;;;;5096228;28;20063;-62
2022/10/17 05:48:18;;;;;;;14.30;10.57;;;13.80;99.90;;;;;;5095764;28;20059;-62
2022/10/17 05:50:44;;;;;;;14.63;10.75;;;13.80;99.90;;;;;;5113857;28;20108;-63
2022/10/17 05:53:11;;;;;;;14.43;10.80;;;13.80;99.90;;;;;;5101906;28;20426;-62
2022/10/17 05:55:39;;;;;;;16.23;10.90;;;13.80;99.90;;;;;;5117195;27;20043;-63
2022/10/17 05:58:07;;;;;;;16.67;10.88;;;13.80;99.90;;;;;;5114780;28;20491;-62
2022/10/17 06:00:34;;;;;;;14.90;10.35;;;13.90;99.90;;;;;;5113916;27;20048;-62
2022/10/17 06:03:00;;;;;;;15.68;10.82;;;13.90;99.90;;;;;;5095303;28;20096;-63
2022/10/17 06:05:27;;;;;;;14.02;11.40;;;13.90;99.90;;;;;;5096052;28;20054;-63
2022/10/17 06:07:54;;;;;;;14.10;11.02;;;13.90;99.90;;;;;;5097633;27;20051;-63
2022/10/17 06:10:21;;;;;;;14.80;11.40;;;13.90;99.90;;;;;;5104296;27;20040;-62
2022/10/17 06:12:49;;;;;;;15.18;11.05;;;13.90;99.90;;;;;;5119733;27;20043;-62
2022/10/17 06:15:16;;;;;;;14.85;10.90;;;14.00;99.90;;;;;;5114153;27;20039;-62
2022/10/17 06:17:43;;;;;;;13.32;10.60;;;14.00;99.90;;;;;;5113552;28;20044;-63
2022/10/17 06:20:10;;;;;;;15.52;11.10;;;14.00;99.90;;;;;;5113339;28;20056;-62
2022/10/17 06:22:37;;;;;;;16.95;11.30;;;14.10;99.90;;;;;;5095603;28;20055;-62
2022/10/17 06:25:05;;;;;;;16.83;10.82;;;14.10;99.90;;;;;;5113355;27;20051;-62
2022/10/17 06:27:31;;;;;;;13.80;11.23;;;14.20;99.90;;;;;;5115908;27;20498;-63
2022/10/17 06:30:00;;;;;;;15.25;10.88;;;14.20;99.90;;;;;;5094036;28;20100;-63
2022/10/17 06:32:26;;;;;;;19.48;11.57;;;14.20;99.90;;;;;;5099172;28;20120;-61
2022/10/17 06:34:53;;;;;;;15.73;11.57;;;14.30;99.90;;;;;;5092984;28;20036;-62
2022/10/17 06:37:20;;;;;;;15.00;10.73;;;14.30;99.90;;;;;;5091189;28;20103;-63
2022/10/17 06:39:47;;;;;;;16.45;11.43;;;14.30;99.90;;;;;;5112902;28;20073;-62
2022/10/17 06:42:14;;;;;;;15.95;11.23;;;14.30;99.90;;;;;;5097806;28;20052;-63
2022/10/17 06:44:41;;;;;;;14.88;11.20;;;14.40;99.90;;;;;;5113280;27;20047;-69
2022/10/17 06:47:09;;;;;;;14.15;11.43;;;14.40;99.90;;;;;;5100777;28;20043;-62
2022/10/17 06:49:36;;;;;;;17.13;11.50;;;14.40;99.90;;;;;;5112414;28;20462;-63
2022/10/17 06:52:03;;;;;;;17.00;11.70;;;14.40;99.90;;;;;;5112520;27;20126;-62
2022/10/17 06:54:30;;;;;;;16.05;11.45;;;14.30;99.90;;;;;;5113080;28;20051;-63
2022/10/17 06:56:57;;;;;;;14.48;11.15;;;14.40;99.90;;;;;;5094036;28;20047;-63
2022/10/17 06:59:24;;;;;;;14.13;10.35;;;14.40;99.90;;;;;;5094633;27;20052;-63
2022/10/17 07:01:50;;;;;;;15.98;10.13;;;14.50;99.90;;;;;;5114983;27;20052;-63
2022/10/17 07:04:19;;;;;;;16.30;11.00;;;14.50;99.90;;;;;;5111256;28;20483;-62
2022/10/17 07:06:45;;;;;;;15.35;10.77;;;14.50;99.90;;;;;;5112563;27;20105;-62
2022/10/17 07:09:12;;;;;;;18.05;10.32;;;14.60;99.90;;;;;;5114687;28;20100;-62
2022/10/17 07:11:39;;;;;;;16.75;9.55;;;14.60;99.90;;;;;;5113051;28;20091;-61
2022/10/17 07:14:06;;;;;;;13.30;9.90;;;14.70;99.90;;;;;;5113073;28;20051;-63
2022/10/17 07:16:33;;;;;;;13.77;10.80;;;14.70;99.90;;;;;;5114488;28;20044;-62
2022/10/17 07:19:00;;;;;;;14.80;10.57;;;14.80;99.90;;;;;;5113630;28;20487;-62
2022/10/17 07:21:28;;;;;;;13.02;9.93;;;14.90;99.90;;;;;;5113040;28;20062;-62
2022/10/17 07:23:55;;;;;;;15.65;8.95;;;15.30;99.90;;;;;;5114010;28;20047;-62
2022/10/17 07:26:22;;;;;;;13.38;9.10;;;15.60;99.90;;;;;;5111838;28;20247;-63
2022/10/17 07:28:53;;;;;;;13.18;9.55;;;15.70;99.90;;;;;;5113135;28;20479;-62
2022/10/17 07:31:22;;;;;;;10.20;8.18;;;15.80;99.90;;;;;;5112470;28;20130;-63
2022/10/17 07:33:49;;;;;;;15.90;9.73;;;15.80;99.90;;;;;;5113503;28;20147;-63
2022/10/17 07:36:16;;;;;;;15.15;9.90;;;15.90;99.90;;;;;;5110315;28;20085;-63
2022/10/17 07:38:45;;;;;;;14.40;9.07;;;16.00;99.90;;;;;;5111224;28;20453;-63
2022/10/17 07:41:12;;;;;;;10.70;8.63;;;16.20;99.90;;;;;;5112450;28;20051;-63
2022/10/17 07:43:40;;;;;;;13.43;8.85;;;16.20;99.90;;;;;;5110942;28;20090;-63
2022/10/17 07:46:07;;;;;;;17.45;8.82;;;16.30;99.90;;;;;;5110827;28;20471;-63
2022/10/17 07:48:35;;;;;;;14.65;7.78;;;16.40;99.90;;;;;;5112067;28;20059;-63
2022/10/17 07:51:03;;;;;;;10.07;7.40;;;16.40;99.90;;;;;;5112540;28;20567;-63
2022/10/17 07:53:30;;;;;;;12.07;8.30;;;16.40;99.90;;;;;;5111769;28;20089;-62
2022/10/17 07:55:58;;;;;;;10.80;7.93;;;16.40;99.90;;;;;;5111998;28;20054;-63
2022/10/17 07:58:27;;;;;;;11.82;7.43;;;16.40;99.90;;;;;;5111820;28;20052;-63
2022/10/17 08:00:54;;;;;;;10.43;7.70;;;16.50;99.90;;;;;;5111701;28;20055;-63
2022/10/17 08:03:21;;;;;;;10.10;7.35;;;16.70;99.90;;;;;;5111656;28;20052;-63
2022/10/17 08:05:48;;;;;;;17.00;7.38;;;17.20;99.90;;;;;;5113187;28;20411;-63
2022/10/17 08:08:15;;;;;;;9.23;5.82;;;18.60;99.90;;;;;;5111002;28;20108;-62
2022/10/17 08:10:41;;;;;;;7.45;5.47;;;20.00;99.90;;;;;;5112167;28;20517;-62
2022/10/17 08:13:10;;;;;;;9.25;6.00;;;20.70;99.90;;;;;;5113093;28;20097;-62
2022/10/17 08:15:38;;;;;;;8.05;5.63;;;20.40;99.90;;;;;;5109970;28;20043;-62
2022/10/17 08:18:05;;;;;;;11.73;6.25;;;20.10;99.90;;;;;;5111671;28;20413;-62
2022/10/17 08:20:32;;;;;;;8.30;6.20;;;19.70;99.90;;;;;;5111979;28;20051;-62
2022/10/17 08:22:59;;;;;;;8.70;6.38;;;19.20;99.90;;;;;;5111393;28;20134;-62
2022/10/17 08:25:26;;;;;;;8.13;6.13;;;18.80;99.90;;;;;;5111698;28;20051;-62
2022/10/17 08:27:52;;;;;;;8.68;6.47;;;18.60;99.90;;;;;;5111238;28;20487;-62
2022/10/17 08:30:21;;;;;;;9.85;6.97;;;18.40;99.90;;;;;;5111849;28;20516;-63
2022/10/17 08:32:47;;;;;;;10.85;6.38;;;18.20;99.90;;;;;;5111680;28;20104;-64
2022/10/17 08:35:14;;;;;;;10.27;6.40;;;18.20;99.90;;;;;;5112542;28;20044;-62
2022/10/17 08:37:41;;;;;;;8.98;6.60;;;18.10;99.90;;;;;;5111953;28;20047;-63
2022/10/17 08:40:17;;;;;;;9.27;6.20;;;18.10;99.90;;;;;;5132079;28;20047;-62
2022/10/17 08:42:55;;;;;;;8.38;6.35;;;18.10;99.90;;;;;;5097455;28;20047;-63
2022/10/17 08:45:30;;;;;;;9.68;5.80;;;18.10;99.90;;;;;;5121479;28;20044;-63
2022/10/17 08:47:59;;;;;;;10.90;6.18;;;18.00;99.90;;;;;;5118826;28;20052;-64
2022/10/17 08:50:33;;;;;;;8.02;5.50;;;18.00;99.90;;;;;;5091003;28;20059;-64
2022/10/17 08:53:06;;;;;;;8.63;5.80;;;18.10;99.90;;;;;;5097234;28;20148;-62
2022/10/17 08:55:36;;;;;;;7.97;6.00;;;18.10;99.90;;;;;;5097966;28;20039;-63
2022/10/17 08:58:03;;;;;;;7.55;5.78;;;18.10;99.90;;;;;;5111902;28;20081;-62
2022/10/17 09:00:33;;;;;;;20.73;6.18;;;18.10;99.90;;;;;;5103282;28;20084;-62
2022/10/17 09:03:17;;;;;;;13.80;6.82;;;18.10;99.90;;;;;;5111957;27;20047;-63
2022/10/17 09:05:50;;;;;;;11.77;6.38;;;18.10;99.90;;;;;;5101121;27;20047;-64
2022/10/17 09:08:30;;;;;;;8.50;5.78;;;18.10;99.90;;;;;;5115454;28;20059;-64
2022/10/17 09:10:58;;;;;;;;;;;18.00;99.90;;;;;;5117933;27;20082;-63
2022/10/17 09:13:40;;;;;;;10.38;6.00;;;17.90;99.90;;;;;;5097453;28;19919;-62
2022/10/17 09:16:36;;;;;;;10.18;6.35;;;17.90;99.90;;;;;;5114433;28;20459;-62
2022/10/17 09:19:08;;;;;;;9.65;6.32;;;18.00;99.90;;;;;;5115795;27;20039;-61
2022/10/17 09:21:43;;;;;;;9.10;5.90;;;18.00;99.90;;;;;;5102703;28;20043;-62
2022/10/17 09:24:17;;;;;;;9.20;6.95;;;17.90;99.90;;;;;;5116685;27;20825;-62
2022/10/17 09:26:46;;;;;;;8.05;6.00;;;17.90;99.90;;;;;;5112176;28;20104;-62
2022/10/17 09:29:19;;;;;;;10.77;6.22;;;17.90;99.90;;;;;;5107954;28;20066;-62
2022/10/17 09:31:54;;;;;;;10.60;6.80;;;17.80;99.90;;;;;;5114380;28;20047;-61
2022/10/17 09:34:29;;;;;;;9.02;6.47;;;17.80;99.90;;;;;;5098940;28;20054;-62
2022/10/17 09:36:58;;;;;;;12.00;7.03;;;17.70;99.90;;;;;;5107501;27;20486;-62
2022/10/17 09:39:30;;;;;;;10.95;6.63;;;17.70;99.90;;;;;;5130474;27;20130;-63
2022/10/17 09:41:59;;;;;;;12.10;6.82;;;17.70;99.90;;;;;;5114411;28;20059;-62
2022/10/17 09:44:30;;;;;;;20.83;6.50;;;17.60;99.90;;;;;;5109001;28;20100;-63
2022/10/17 09:47:25;;;;;;;8.02;6.18;;;17.60;99.90;;;;;;5095777;28;20047;-63
2022/10/17 09:49:52;;;;;;;8.07;6.45;;;17.60;99.90;;;;;;5110713;27;20376;-63
2022/10/17 09:52:22;;;;;;;9.98;6.90;;;17.60;99.90;;;;;;5109691;28;20051;-62
2022/10/17 09:54:51;;;;;;;8.67;6.10;;;17.60;99.90;;;;;;5114098;27;20085;-63
2022/10/17 09:57:20;;;;;;;10.18;6.70;;;17.60;99.90;;;;;;5116714;27;20104;-63
2022/10/17 09:59:55;;;;;;;9.18;7.07;;;17.50;99.90;;;;;;5096881;28;20491;-62
2022/10/17 10:02:25;;;;;;;10.05;7.10;;;17.50;99.90;;;;;;5104932;27;20051;-62
2022/10/17 10:05:01;;;;;;;9.55;7.05;;;17.30;99.90;;;;;;5123671;27;20101;-63
2022/10/17 10:07:29;;;;;;;13.60;8.07;;;17.30;99.90;;;;;;5105959;28;20060;-62
2022/10/17 10:09:57;;;;;;;11.90;7.90;;;17.20;99.90;;;;;;5114281;27;20051;-63
2022/10/17 10:12:27;;;;;;;12.25;8.05;;;17.10;99.90;;;;;;5114491;28;20502;-62
2022/10/17 10:14:54;;;;;;;11.07;8.65;;;17.00;99.90;;;;;;5115640;27;20050;-62
2022/10/17 10:17:35;;;;;;;12.35;8.15;;;16.90;99.90;;;;;;5106615;27;20055;-63
2022/10/17 10:20:04;;;;;;;10.10;8.57;;;16.90;99.90;;;;;;5115251;27;20048;-63
2022/10/17 10:22:31;;;;;;;11.32;8.10;;;16.80;99.90;;;;;;5104968;28;20047;-63
2022/10/17 10:25:08;;;;;;;14.50;9.40;;;16.80;99.90;;;;;;5117206;27;20055;-63
2022/10/17 10:27:36;;;;;;;12.93;8.95;;;16.80;99.90;;;;;;5099087;27;20047;-63
2022/10/17 10:30:05;;;;;;;12.73;8.95;;;16.70;99.90;;;;;;5114469;27;20059;-62
2022/10/17 10:32:35;;;;;;;14.25;9.70;;;16.70;99.90;;;;;;5113967;28;20055;-62
2022/10/17 10:35:05;;;;;;;;;;;16.70;99.90;;;;;;5113662;28;20048;-63
2022/10/17 10:37:38;;;;;;;12.60;9.13;;;16.70;99.90;;;;;;5106762;28;19920;-63
2022/10/17 10:40:07;;;;;;;13.20;10.18;;;16.70;99.90;;;;;;5113528;28;20055;-62
2022/10/17 10:42:37;;;;;;;13.60;9.60;;;16.70;99.90;;;;;;5098964;28;20052;-62
2022/10/17 10:45:16;;;;;;;13.02;9.13;;;16.70;99.90;;;;;;5123317;27;20125;-62
2022/10/17 10:47:53;;;;;;;14.20;9.82;;;16.70;99.90;;;;;;5112660;28;20051;-62
2022/10/17 10:50:29;;;;;;;16.60;9.82;;;16.70;99.90;;;;;;5094503;28;20627;-62
2022/10/17 10:53:06;;;;;;;15.25;9.18;;;16.70;99.90;;;;;;5132584;27;20501;-62
2022/10/17 10:55:40;;;;;;;13.93;10.23;;;16.70;99.90;;;;;;5094696;28;20051;-62
2022/10/17 10:58:23;;;;;;;20.73;10.43;;;16.70;99.90;;;;;;5110827;27;20055;-62
2022/10/17 11:00:51;;;;;;;12.30;9.90;;;16.70;99.90;;;;;;5133924;27;20399;-63
2022/10/17 11:03:26;;;;;;;13.20;8.55;;;16.80;99.90;;;;;;5115271;27;20486;-63
2022/10/17 11:05:58;;;;;;;11.13;8.85;;;16.80;99.90;;;;;;5115531;27;20059;-63
2022/10/17 11:08:29;;;;;;;17.10;10.30;;;16.80;99.90;;;;;;5115256;27;20091;-63
2022/10/17 11:11:06;;;;;;;12.05;9.32;;;16.90;99.90;;;;;;5106545;28;20104;-63
2022/10/17 11:13:39;;;;;;;12.90;9.57;;;16.90;99.90;;;;;;5113759;27;20055;-63
2022/10/17 11:16:20;;;;;;;16.50;9.73;;;16.90;99.90;;;;;;5093540;28;20111;-62
2022/10/17 11:18:53;;;;;;;12.93;9.30;;;17.00;99.90;;;;;;5112276;28;20468;-63
2022/10/17 11:21:27;;;;;;;16.15;9.63;;;17.00;99.90;;;;;;5099163;28;20051;-63
2022/10/17 11:24:03;;;;;;;12.38;9.38;;;17.10;99.90;;;;;;5093211;28;20137;-63
2022/10/17 11:26:32;;;;;;;11.77;8.75;;;17.10;99.90;;;;;;5112250;28;20043;-63
2022/10/17 11:29:02;;;;;;;13.40;8.80;;;17.10;99.90;;;;;;5112634;28;20215;-62
2022/10/17 11:31:32;;;;;;;14.23;9.95;;;17.00;99.90;;;;;;5111393;27;20506;-63
2022/10/17 11:34:03;;;;;;;12.02;9.95;;;17.10;99.90;;;;;;5123936;27;20099;-62
2022/10/17 11:36:34;;;;;;;12.73;9.35;;;17.10;99.90;;;;;;5106471;28;20058;-62
2022/10/17 11:39:05;;;;;;;12.32;8.68;;;17.00;99.90;;;;;;5108896;28;20051;-62
2022/10/17 11:41:37;;;;;;;14.93;8.90;;;17.00;99.90;;;;;;5122201;27;20138;-63
2022/10/17 11:44:13;;;;;;;15.05;8.10;;;17.00;99.90;;;;;;5094184;28;20495;-63
2022/10/17 11:46:41;;;;;;;11.15;8.13;;;17.00;99.90;;;;;;5104371;28;20047;-63
2022/10/17 11:49:13;;;;;;;13.25;7.72;;;17.00;99.90;;;;;;5113780;27;20047;-63
2022/10/17 11:51:45;;;;;;;9.20;6.68;;;17.00;99.90;;;;;;5095337;28;20113;-64
2022/10/17 11:54:16;;;;;;;9.70;6.50;;;17.00;99.90;;;;;;5109224;28;20513;-63
2022/10/17 11:56:54;;;;;;;8.38;6.82;;;17.00;99.90;;;;;;5110745;28;20040;-63
2022/10/17 11:59:54;;;;;;;9.80;5.63;;;17.00;99.90;;;;;;5092821;28;20431;-63
2022/10/17 12:02:31;;;;;;;6.78;5.43;;;16.90;99.90;;;;;;5089185;27;20109;-63
2022/10/17 12:05:09;;;;;;;8.45;5.53;;;16.90;99.90;;;;;;5096222;28;20184;-63
2022/10/17 12:07:45;;;;;;;7.43;5.00;;;16.90;99.90;;;;;;5111076;28;20047;-63
2022/10/17 12:10:31;;;;;;;8.10;4.85;;;16.90;99.90;;;;;;5098089;28;20100;-63
2022/10/17 12:13:18;;;;;;;7.25;5.22;;;17.00;99.90;;;;;;5093805;28;20116;-63
2022/10/17 12:15:45;;;;;;;6.88;5.40;;;16.90;99.90;;;;;;5123795;27;20040;-63
2022/10/17 12:18:17;;;;;;;7.07;4.90;;;17.00;99.90;;;;;;5112595;28;20487;-64
2022/10/17 12:20:56;;;;;;;7.70;5.18;;;17.00;99.90;;;;;;5095621;28;20059;-63
2022/10/17 12:23:26;;;;;;;9.23;5.60;;;17.20;99.90;;;;;;5112901;28;20047;-63
2022/10/17 12:25:56;;;;;;;6.78;5.30;;;17.30;99.90;;;;;;5111580;28;20105;-63
2022/10/17 12:28:29;;;;;;;6.20;5.47;;;17.40;99.90;;;;;;5110843;28;20048;-63
2022/10/17 12:30:58;;;;;;;6.93;5.40;;;17.60;99.90;;;;;;5093512;28;20048;-63
2022/10/17 12:33:33;;;;;;;8.52;5.57;;;17.60;99.90;;;;;;5111716;28;20116;-64
2022/10/17 12:36:36;;;;;;;9.43;5.85;;;17.60;99.90;;;;;;5108273;28;20054;-63
2022/10/17 12:39:49;;;;;;;7.70;5.03;;;17.60;99.90;;;;;;5097677;27;20058;-63
2022/10/17 12:42:49;;;;;;;7.18;5.40;;;17.60;99.90;;;;;;5122691;27;20744;-63
2022/10/17 12:45:50;;;;;;;8.77;5.78;;;17.50;99.90;;;;;;5098290;28;20514;-63
2022/10/17 12:49:00;;;;;;;8.75;5.47;;;17.50;99.90;;;;;;5108291;27;20127;-62
2022/10/17 12:51:28;;;;;;;7.63;4.95;;;17.50;99.90;;;;;;5097463;28;20066;-63
2022/10/17 12:53:59;;;;;;;6.13;4.65;;;17.40;99.90;;;;;;5114096;28;20043;-62
2022/10/17 12:56:37;;;;;;;8.73;4.93;;;17.40;99.90;;;;;;5099478;28;20135;-63
2022/10/17 12:59:13;;;;;;;8.88;4.70;;;17.30;99.90;;;;;;5103155;28;20047;-62